sensor_id;sensor_type;location;lat;lon;timestamp;temperature;humidity
30069;DHT22;16894;49.456;10.644;2023-02-17T00:00:29;5.50;99.90
30069;DHT22;16894;49.456;10.644;2023-02-17T00:02:58;5.40;99.90
30069;DHT22;16894;49.456;10.644;2023-02-17T00:05:25;5.40;99.90
30069;DHT22;16894;49.456;10.644;2023-02-17T00:07:51;5.40;99.90
30069;DHT22;16894;49.456;10.644;2023-02-17T00:10:17;5.40;99.90
30069;DHT22;16894;49.456;10.644;2023-02-17T00:12:42;5.50;99.90
30069;DHT22;16894;49.456;10.644;2023-02-17T00:15:08;5.60;99.90
30069;DHT22;16894;49.456;10.644;2023-02-17T00:17:34;5.70;99.90
30069;DHT22;16894;49.456;10.644;2023-02-17T00:19:59;5.90;99.90
30069;DHT22;16894;49.456;10.644;2023-02-17T00:22:25;6.00;99.90
30069;DHT22;16894;49.456;10.644;2023-02-17T00:24:51;6.10;99.90
30069;DHT22;16894;49.456;10.644;2023-02-17T00:27:17;6.10;99.90
30069;DHT22;16894;49.456;10.644;2023-02-17T00:29:43;6.20;99.90
30069;DHT22;16894;49.456;10.644;2023-02-17T00:32:09;6.30;99.90
30069;DHT22;16894;49.456;10.644;2023-02-17T00:34:35;6.40;99.90
30069;DHT22;16894;49.456;10.644;2023-02-17T00:37:01;6.40;99.90
30069;DHT22;16894;49.456;10.644;2023-02-17T00:39:27;6.50;99.90
30069;DHT22;16894;49.456;10.644;2023-02-17T00:41:52;6.50;99.90
30069;DHT22;16894;49.456;10.644;2023-02-17T00:44:20;6.50;99.90
30069;DHT22;16894;49.456;10.644;2023-02-17T00:46:46;6.50;99.90
30069;DHT22;16894;49.456;10.644;2023-02-17T00:49:22;6.40;99.90
30069;DHT22;16894;49.456;10.644;2023-02-17T00:51:48;6.40;99.90
30069;DHT22;16894;49.456;10.644;2023-02-17T00:54:14;6.40;99.90
30069;DHT22;16894;49.456;10.644;2023-02-17T00:56:40;6.40;99.90
30069;DHT22;16894;49.456;10.644;2023-02-17T00:59:06;6.50;99.90
30069;DHT22;16894;49.456;10.644;2023-02-17T01:01:32;6.60;99.90
30069;DHT22;16894;49.456;10.644;2023-02-17T01:03:59;6.60;99.90
30069;DHT22;16894;49.456;10.644;2023-02-17T01:06:27;6.60;99.90
30069;DHT22;16894;49.456;10.644;2023-02-17T01:08:54;6.70;99.90
30069;DHT22;16894;49.456;10.644;2023-02-17T01:11:22;6.70;99.90
30069;DHT22;16894;49.456;10.644;2023-02-17T01:13:48;6.90;99.90
30069;DHT22;16894;49.456;10.644;2023-02-17T01:16:16;7.00;99.90
30069;DHT22;16894;49.456;10.644;2023-02-17T01:18:41;7.00;99.90
30069;DHT22;16894;49.456;10.644;2023-02-17T01:21:21;7.00;99.90
30069;DHT22;16894;49.456;10.644;2023-02-17T01:23:54;7.00;99.90
30069;DHT22;16894;49.456;10.644;2023-02-17T01:26:22;7.00;99.90
30069;DHT22;16894;49.456;10.644;2023-02-17T01:28:49;7.10;99.90
30069;DHT22;16894;49.456;10.644;2023-02-17T01:31:15;7.20;99.90
30069;DHT22;16894;49.456;10.644;2023-02-17T01:33:41;7.20;99.90
30069;DHT22;16894;49.456;10.644;2023-02-17T01:36:09;7.30;99.90
30069;DHT22;16894;49.456;10.644;2023-02-17T01:38:36;7.40;99.90
30069;DHT22;16894;49.456;10.644;2023-02-17T01:41:02;7.40;99.90
30069;DHT22;16894;49.456;10.644;2023-02-17T01:43:28;7.40;99.90
30069;DHT22;16894;49.456;10.644;2023-02-17T01:45:56;7.30;99.90
30069;DHT22;16894;49.456;10.644;2023-02-17T01:51:12;7.30;99.90
30069;DHT22;16894;49.456;10.644;2023-02-17T01:53:49;7.30;99.90
30069;DHT22;16894;49.456;10.644;2023-02-17T01:56:17;7.30;99.90
30069;DHT22;16894;49.456;10.644;2023-02-17T01:58:48;7.20;99.90
30069;DHT22;16894;49.456;10.644;2023-02-17T02:01:15;7.20;99.90
30069;DHT22;16894;49.456;10.644;2023-02-17T02:03:41;7.20;99.90
30069;DHT22;16894;49.456;10.644;2023-02-17T02:06:12;7.20;99.90
30069;DHT22;16894;49.456;10.644;2023-02-17T02:11:28;7.20;99.90
30069;DHT22;16894;49.456;10.644;2023-02-17T02:13:53;7.10;99.90
30069;DHT22;16894;49.456;10.644;2023-02-17T02:16:48;7.10;99.90
30069;DHT22;16894;49.456;10.644;2023-02-17T02:19:41;7.00;99.90
30069;DHT22;16894;49.456;10.644;2023-02-17T02:25:15;6.80;99.90
30069;DHT22;16894;49.456;10.644;2023-02-17T02:27:57;6.70;99.90
30069;DHT22;16894;49.456;10.644;2023-02-17T02:31:17;6.70;99.90
30069;DHT22;16894;49.456;10.644;2023-02-17T02:41:24;6.70;99.90
30069;DHT22;16894;49.456;10.644;2023-02-17T02:43:52;6.80;99.90
30069;DHT22;16894;49.456;10.644;2023-02-17T02:46:18;6.90;99.90
30069;DHT22;16894;49.456;10.644;2023-02-17T02:48:44;6.90;99.90
30069;DHT22;16894;49.456;10.644;2023-02-17T02:53:55;7.20;99.90
30069;DHT22;16894;49.456;10.644;2023-02-17T02:59:24;7.30;99.90
30069;DHT22;16894;49.456;10.644;2023-02-17T03:05:15;7.50;99.90
30069;DHT22;16894;49.456;10.644;2023-02-17T03:07:50;7.50;99.90
30069;DHT22;16894;49.456;10.644;2023-02-17T03:10:19;7.60;99.90
30069;DHT22;16894;49.456;10.644;2023-02-17T03:12:45;7.60;99.90
30069;DHT22;16894;49.456;10.644;2023-02-17T03:15:32;7.60;99.90
30069;DHT22;16894;49.456;10.644;2023-02-17T03:17:59;7.60;99.90
30069;DHT22;16894;49.456;10.644;2023-02-17T03:20:55;7.60;99.90
30069;DHT22;16894;49.456;10.644;2023-02-17T03:23:21;7.60;99.90
30069;DHT22;16894;49.456;10.644;2023-02-17T03:25:47;7.60;99.90
30069;DHT22;16894;49.456;10.644;2023-02-17T03:28:13;7.70;99.90
30069;DHT22;16894;49.456;10.644;2023-02-17T03:30:39;7.70;99.90
30069;DHT22;16894;49.456;10.644;2023-02-17T03:33:05;7.80;99.90
30069;DHT22;16894;49.456;10.644;2023-02-17T03:35:31;7.90;99.90
30069;DHT22;16894;49.456;10.644;2023-02-17T03:37:57;7.90;99.90
30069;DHT22;16894;49.456;10.644;2023-02-17T03:40:22;8.00;99.90
30069;DHT22;16894;49.456;10.644;2023-02-17T03:42:48;8.00;99.90
30069;DHT22;16894;49.456;10.644;2023-02-17T03:45:13;8.10;99.90
30069;DHT22;16894;49.456;10.644;2023-02-17T03:47:39;8.10;99.90
30069;DHT22;16894;49.456;10.644;2023-02-17T03:50:05;8.20;99.90
30069;DHT22;16894;49.456;10.644;2023-02-17T03:52:31;8.30;99.90
30069;DHT22;16894;49.456;10.644;2023-02-17T03:54:57;8.40;99.90
30069;DHT22;16894;49.456;10.644;2023-02-17T03:57:23;8.40;99.90
30069;DHT22;16894;49.456;10.644;2023-02-17T03:59:48;8.50;99.90
30069;DHT22;16894;49.456;10.644;2023-02-17T04:02:14;8.60;99.90
30069;DHT22;16894;49.456;10.644;2023-02-17T04:04:39;8.70;99.90
30069;DHT22;16894;49.456;10.644;2023-02-17T04:07:05;8.70;99.90
30069;DHT22;16894;49.456;10.644;2023-02-17T04:09:31;8.80;99.90
30069;DHT22;16894;49.456;10.644;2023-02-17T04:11:56;8.90;99.90
30069;DHT22;16894;49.456;10.644;2023-02-17T04:14:22;8.90;99.90
30069;DHT22;16894;49.456;10.644;2023-02-17T04:16:47;8.90;99.90
30069;DHT22;16894;49.456;10.644;2023-02-17T04:19:13;9.00;99.90
30069;DHT22;16894;49.456;10.644;2023-02-17T04:21:39;9.10;99.90
30069;DHT22;16894;49.456;10.644;2023-02-17T04:24:04;9.00;99.90
30069;DHT22;16894;49.456;10.644;2023-02-17T04:26:30;9.00;99.90
30069;DHT22;16894;49.456;10.644;2023-02-17T04:28:56;8.90;99.90
30069;DHT22;16894;49.456;10.644;2023-02-17T04:31:22;8.90;99.90
30069;DHT22;16894;49.456;10.644;2023-02-17T04:33:48;8.80;99.90
30069;DHT22;16894;49.456;10.644;2023-02-17T04:36:14;8.90;99.90
30069;DHT22;16894;49.456;10.644;2023-02-17T04:38:39;8.90;99.90
30069;DHT22;16894;49.456;10.644;2023-02-17T04:41:05;8.90;99.90
30069;DHT22;16894;49.456;10.644;2023-02-17T04:43:31;8.90;99.90
30069;DHT22;16894;49.456;10.644;2023-02-17T04:45:58;8.80;99.90
30069;DHT22;16894;49.456;10.644;2023-02-17T04:48:24;8.80;99.90
30069;DHT22;16894;49.456;10.644;2023-02-17T04:50:50;8.80;99.90
30069;DHT22;16894;49.456;10.644;2023-02-17T04:53:17;8.70;99.90
30069;DHT22;16894;49.456;10.644;2023-02-17T04:55:43;8.80;99.90
30069;DHT22;16894;49.456;10.644;2023-02-17T04:58:09;8.70;99.90
30069;DHT22;16894;49.456;10.644;2023-02-17T05:00:35;8.70;99.90
30069;DHT22;16894;49.456;10.644;2023-02-17T05:03:01;8.70;99.90
30069;DHT22;16894;49.456;10.644;2023-02-17T05:05:27;8.60;99.90
30069;DHT22;16894;49.456;10.644;2023-02-17T05:07:52;8.60;99.90
30069;DHT22;16894;49.456;10.644;2023-02-17T05:10:18;8.60;99.90
30069;DHT22;16894;49.456;10.644;2023-02-17T05:12:44;8.60;99.90
30069;DHT22;16894;49.456;10.644;2023-02-17T05:15:10;8.60;99.90
30069;DHT22;16894;49.456;10.644;2023-02-17T05:17:36;8.60;99.90
30069;DHT22;16894;49.456;10.644;2023-02-17T05:20:03;8.70;99.90
30069;DHT22;16894;49.456;10.644;2023-02-17T05:22:29;8.80;99.90
30069;DHT22;16894;49.456;10.644;2023-02-17T05:24:55;8.80;99.90
30069;DHT22;16894;49.456;10.644;2023-02-17T05:27:20;8.80;99.90
30069;DHT22;16894;49.456;10.644;2023-02-17T05:29:46;8.70;99.90
30069;DHT22;16894;49.456;10.644;2023-02-17T05:32:12;8.80;99.90
30069;DHT22;16894;49.456;10.644;2023-02-17T05:34:38;8.80;99.90
30069;DHT22;16894;49.456;10.644;2023-02-17T05:37:03;8.80;99.90
30069;DHT22;16894;49.456;10.644;2023-02-17T05:39:29;8.80;99.90
30069;DHT22;16894;49.456;10.644;2023-02-17T05:41:55;8.80;99.90
30069;DHT22;16894;49.456;10.644;2023-02-17T05:44:21;8.80;99.90
30069;DHT22;16894;49.456;10.644;2023-02-17T05:46:46;8.80;99.90
30069;DHT22;16894;49.456;10.644;2023-02-17T05:49:12;8.80;99.90
30069;DHT22;16894;49.456;10.644;2023-02-17T05:51:38;8.80;99.90
30069;DHT22;16894;49.456;10.644;2023-02-17T05:54:03;8.80;99.90
30069;DHT22;16894;49.456;10.644;2023-02-17T05:56:29;8.80;99.90
30069;DHT22;16894;49.456;10.644;2023-02-17T05:58:55;8.80;99.90
30069;DHT22;16894;49.456;10.644;2023-02-17T06:01:20;8.80;99.90
30069;DHT22;16894;49.456;10.644;2023-02-17T06:03:46;8.70;99.90
30069;DHT22;16894;49.456;10.644;2023-02-17T06:06:12;8.70;99.90
30069;DHT22;16894;49.456;10.644;2023-02-17T06:08:38;8.70;99.90
30069;DHT22;16894;49.456;10.644;2023-02-17T06:11:04;8.80;99.90
30069;DHT22;16894;49.456;10.644;2023-02-17T06:13:30;8.80;99.90
30069;DHT22;16894;49.456;10.644;2023-02-17T06:15:56;8.70;99.90
30069;DHT22;16894;49.456;10.644;2023-02-17T06:18:22;8.70;99.90
30069;DHT22;16894;49.456;10.644;2023-02-17T06:20:47;8.70;99.90
30069;DHT22;16894;49.456;10.644;2023-02-17T06:23:13;8.70;99.90
30069;DHT22;16894;49.456;10.644;2023-02-17T06:25:38;8.70;99.90
30069;DHT22;16894;49.456;10.644;2023-02-17T06:28:04;8.80;99.90
30069;DHT22;16894;49.456;10.644;2023-02-17T06:30:29;8.80;99.90
30069;DHT22;16894;49.456;10.644;2023-02-17T06:32:55;8.80;99.90
30069;DHT22;16894;49.456;10.644;2023-02-17T06:35:22;8.80;99.90
30069;DHT22;16894;49.456;10.644;2023-02-17T06:37:48;8.80;99.90
30069;DHT22;16894;49.456;10.644;2023-02-17T06:40:14;8.90;99.90
30069;DHT22;16894;49.456;10.644;2023-02-17T06:42:39;8.90;99.90
30069;DHT22;16894;49.456;10.644;2023-02-17T06:45:05;8.90;99.90
30069;DHT22;16894;49.456;10.644;2023-02-17T06:47:32;9.00;99.90
30069;DHT22;16894;49.456;10.644;2023-02-17T06:49:57;8.90;99.90
30069;DHT22;16894;49.456;10.644;2023-02-17T06:52:23;8.80;99.90
30069;DHT22;16894;49.456;10.644;2023-02-17T06:54:49;8.80;99.90
30069;DHT22;16894;49.456;10.644;2023-02-17T06:57:15;8.70;99.90
30069;DHT22;16894;49.456;10.644;2023-02-17T06:59:41;8.80;99.90
30069;DHT22;16894;49.456;10.644;2023-02-17T07:02:10;8.80;99.90
30069;DHT22;16894;49.456;10.644;2023-02-17T07:04:37;8.80;99.90
30069;DHT22;16894;49.456;10.644;2023-02-17T07:07:03;8.90;99.90
30069;DHT22;16894;49.456;10.644;2023-02-17T07:09:28;8.90;99.90
30069;DHT22;16894;49.456;10.644;2023-02-17T07:11:54;8.80;99.90
30069;DHT22;16894;49.456;10.644;2023-02-17T07:14:19;8.90;99.90
30069;DHT22;16894;49.456;10.644;2023-02-17T07:16:45;8.80;99.90
30069;DHT22;16894;49.456;10.644;2023-02-17T07:19:11;8.80;99.90
30069;DHT22;16894;49.456;10.644;2023-02-17T07:21:37;8.90;99.90
30069;DHT22;16894;49.456;10.644;2023-02-17T07:24:03;8.90;99.90
30069;DHT22;16894;49.456;10.644;2023-02-17T07:26:28;8.90;99.90
30069;DHT22;16894;49.456;10.644;2023-02-17T07:28:54;8.90;99.90
30069;DHT22;16894;49.456;10.644;2023-02-17T07:31:20;8.90;99.90
30069;DHT22;16894;49.456;10.644;2023-02-17T07:33:45;8.90;99.90
30069;DHT22;16894;49.456;10.644;2023-02-17T07:36:15;8.90;99.90
30069;DHT22;16894;49.456;10.644;2023-02-17T07:38:41;8.90;99.90
30069;DHT22;16894;49.456;10.644;2023-02-17T07:41:13;8.90;99.90
30069;DHT22;16894;49.456;10.644;2023-02-17T07:43:39;8.90;99.90
30069;DHT22;16894;49.456;10.644;2023-02-17T07:46:05;8.90;99.90
30069;DHT22;16894;49.456;10.644;2023-02-17T07:48:31;8.90;99.90
30069;DHT22;16894;49.456;10.644;2023-02-17T07:51:06;8.90;99.90
30069;DHT22;16894;49.456;10.644;2023-02-17T07:53:33;8.90;99.90
30069;DHT22;16894;49.456;10.644;2023-02-17T07:56:00;8.90;99.90
30069;DHT22;16894;49.456;10.644;2023-02-17T07:58:26;9.00;99.90
30069;DHT22;16894;49.456;10.644;2023-02-17T08:00:51;9.00;99.90
30069;DHT22;16894;49.456;10.644;2023-02-17T08:03:17;8.90;99.90
30069;DHT22;16894;49.456;10.644;2023-02-17T08:05:43;8.90;99.90
30069;DHT22;16894;49.456;10.644;2023-02-17T08:08:08;9.00;99.90
30069;DHT22;16894;49.456;10.644;2023-02-17T08:10:52;9.00;99.90
30069;DHT22;16894;49.456;10.644;2023-02-17T08:13:37;9.10;99.90
30069;DHT22;16894;49.456;10.644;2023-02-17T08:16:02;9.10;99.90
30069;DHT22;16894;49.456;10.644;2023-02-17T08:18:28;9.10;99.90
30069;DHT22;16894;49.456;10.644;2023-02-17T08:20:54;9.10;99.90
30069;DHT22;16894;49.456;10.644;2023-02-17T08:23:20;9.10;99.90
30069;DHT22;16894;49.456;10.644;2023-02-17T08:25:45;9.20;99.90
30069;DHT22;16894;49.456;10.644;2023-02-17T08:28:12;9.20;99.90
30069;DHT22;16894;49.456;10.644;2023-02-17T08:30:38;9.20;99.90
30069;DHT22;16894;49.456;10.644;2023-02-17T08:33:05;9.20;99.90
30069;DHT22;16894;49.456;10.644;2023-02-17T08:35:30;9.10;99.90
30069;DHT22;16894;49.456;10.644;2023-02-17T08:37:56;9.10;99.90
30069;DHT22;16894;49.456;10.644;2023-02-17T08:40:22;9.10;99.90
30069;DHT22;16894;49.456;10.644;2023-02-17T08:42:48;9.10;99.90
30069;DHT22;16894;49.456;10.644;2023-02-17T08:45:15;9.10;99.90
30069;DHT22;16894;49.456;10.644;2023-02-17T08:47:42;9.10;99.90
30069;DHT22;16894;49.456;10.644;2023-02-17T08:50:09;9.20;99.90
30069;DHT22;16894;49.456;10.644;2023-02-17T08:52:36;9.10;99.90
30069;DHT22;16894;49.456;10.644;2023-02-17T08:55:02;9.20;99.90
30069;DHT22;16894;49.456;10.644;2023-02-17T08:57:27;9.20;99.90
30069;DHT22;16894;49.456;10.644;2023-02-17T08:59:53;9.30;99.90
30069;DHT22;16894;49.456;10.644;2023-02-17T09:02:19;9.30;99.90
30069;DHT22;16894;49.456;10.644;2023-02-17T09:04:45;9.30;99.90
30069;DHT22;16894;49.456;10.644;2023-02-17T09:07:12;9.30;99.90
30069;DHT22;16894;49.456;10.644;2023-02-17T09:09:39;9.30;99.90
30069;DHT22;16894;49.456;10.644;2023-02-17T09:12:05;9.30;99.90
30069;DHT22;16894;49.456;10.644;2023-02-17T09:14:31;9.30;99.90
30069;DHT22;16894;49.456;10.644;2023-02-17T09:16:57;9.30;99.90
30069;DHT22;16894;49.456;10.644;2023-02-17T09:19:23;9.30;99.90
30069;DHT22;16894;49.456;10.644;2023-02-17T09:21:49;9.30;99.90
30069;DHT22;16894;49.456;10.644;2023-02-17T09:24:16;9.20;99.90
30069;DHT22;16894;49.456;10.644;2023-02-17T09:26:41;9.30;99.90
30069;DHT22;16894;49.456;10.644;2023-02-17T09:29:07;9.40;99.90
30069;DHT22;16894;49.456;10.644;2023-02-17T09:31:34;9.40;99.90
30069;DHT22;16894;49.456;10.644;2023-02-17T09:34:01;9.40;99.90
30069;DHT22;16894;49.456;10.644;2023-02-17T09:36:32;9.40;99.90
30069;DHT22;16894;49.456;10.644;2023-02-17T09:38:58;9.40;99.90
30069;DHT22;16894;49.456;10.644;2023-02-17T09:41:44;9.40;99.90
30069;DHT22;16894;49.456;10.644;2023-02-17T09:44:39;9.50;99.90
30069;DHT22;16894;49.456;10.644;2023-02-17T09:47:11;9.50;99.90
30069;DHT22;16894;49.456;10.644;2023-02-17T09:50:23;9.60;99.90
30069;DHT22;16894;49.456;10.644;2023-02-17T09:52:40;9.60;99.90
30069;DHT22;16894;49.456;10.644;2023-02-17T09:55:12;9.60;99.90
30069;DHT22;16894;49.456;10.644;2023-02-17T10:00:15;9.80;99.90
30069;DHT22;16894;49.456;10.644;2023-02-17T10:08:30;10.10;99.90
30069;DHT22;16894;49.456;10.644;2023-02-17T10:11:38;10.30;99.90
30069;DHT22;16894;49.456;10.644;2023-02-17T10:14:05;10.30;99.90
30069;DHT22;16894;49.456;10.644;2023-02-17T10:16:37;10.40;99.90
30069;DHT22;16894;49.456;10.644;2023-02-17T10:19:26;10.40;99.90
30069;DHT22;16894;49.456;10.644;2023-02-17T10:22:07;10.50;99.90
30069;DHT22;16894;49.456;10.644;2023-02-17T10:24:35;10.50;99.90
30069;DHT22;16894;49.456;10.644;2023-02-17T10:30:06;10.60;99.90
30069;DHT22;16894;49.456;10.644;2023-02-17T10:33:11;10.70;99.90
30069;DHT22;16894;49.456;10.644;2023-02-17T10:38:16;10.50;99.90
30069;DHT22;16894;49.456;10.644;2023-02-17T10:40:45;10.40;99.90
30069;DHT22;16894;49.456;10.644;2023-02-17T10:43:16;10.50;99.90
30069;DHT22;16894;49.456;10.644;2023-02-17T10:45:45;10.60;99.90
30069;DHT22;16894;49.456;10.644;2023-02-17T10:48:37;10.60;99.90
30069;DHT22;16894;49.456;10.644;2023-02-17T10:51:04;10.70;99.90
30069;DHT22;16894;49.456;10.644;2023-02-17T10:53:36;10.70;99.90
30069;DHT22;16894;49.456;10.644;2023-02-17T10:56:10;10.60;99.90
30069;DHT22;16894;49.456;10.644;2023-02-17T10:58:58;10.50;99.90
30069;DHT22;16894;49.456;10.644;2023-02-17T11:01:27;10.50;99.90
30069;DHT22;16894;49.456;10.644;2023-02-17T11:04:05;10.50;99.90
30069;DHT22;16894;49.456;10.644;2023-02-17T11:06:56;10.50;99.90
30069;DHT22;16894;49.456;10.644;2023-02-17T11:09:24;10.40;99.90
30069;DHT22;16894;49.456;10.644;2023-02-17T11:12:05;10.40;99.90
30069;DHT22;16894;49.456;10.644;2023-02-17T11:14:36;10.40;99.90
30069;DHT22;16894;49.456;10.644;2023-02-17T11:19:58;10.30;99.90
30069;DHT22;16894;49.456;10.644;2023-02-17T11:22:37;10.30;99.90
30069;DHT22;16894;49.456;10.644;2023-02-17T11:25:19;10.30;99.90
30069;DHT22;16894;49.456;10.644;2023-02-17T11:27:51;10.30;99.90
30069;DHT22;16894;49.456;10.644;2023-02-17T11:30:17;10.20;99.90
30069;DHT22;16894;49.456;10.644;2023-02-17T11:32:43;10.10;99.90
30069;DHT22;16894;49.456;10.644;2023-02-17T11:35:44;10.00;99.90
30069;DHT22;16894;49.456;10.644;2023-02-17T11:38:15;9.90;99.90
30069;DHT22;16894;49.456;10.644;2023-02-17T11:40:50;9.80;99.90
30069;DHT22;16894;49.456;10.644;2023-02-17T11:43:16;9.80;99.90
30069;DHT22;16894;49.456;10.644;2023-02-17T11:49:01;9.70;99.90
30069;DHT22;16894;49.456;10.644;2023-02-17T11:52:06;9.80;99.90
30069;DHT22;16894;49.456;10.644;2023-02-17T11:59:59;9.70;99.90
30069;DHT22;16894;49.456;10.644;2023-02-17T12:08:35;9.80;99.90
30069;DHT22;16894;49.456;10.644;2023-02-17T12:11:21;9.90;99.90
30069;DHT22;16894;49.456;10.644;2023-02-17T12:14:28;9.90;99.90
30069;DHT22;16894;49.456;10.644;2023-02-17T12:20:32;9.80;99.90
30069;DHT22;16894;49.456;10.644;2023-02-17T12:26:11;9.80;99.90
30069;DHT22;16894;49.456;10.644;2023-02-17T12:28:47;9.80;99.90
30069;DHT22;16894;49.456;10.644;2023-02-17T12:34:41;9.80;99.90
30069;DHT22;16894;49.456;10.644;2023-02-17T12:37:18;9.90;99.90
30069;DHT22;16894;49.456;10.644;2023-02-17T12:39:55;10.00;99.90
30069;DHT22;16894;49.456;10.644;2023-02-17T12:44:54;10.00;99.90
30069;DHT22;16894;49.456;10.644;2023-02-17T12:47:49;10.10;99.90
30069;DHT22;16894;49.456;10.644;2023-02-17T12:50:25;10.20;99.90
30069;DHT22;16894;49.456;10.644;2023-02-17T12:52:58;10.30;99.90
30069;DHT22;16894;49.456;10.644;2023-02-17T12:55:49;10.30;99.90
30069;DHT22;16894;49.456;10.644;2023-02-17T12:58:19;10.40;99.90
30069;DHT22;16894;49.456;10.644;2023-02-17T13:00:52;10.40;99.90
30069;DHT22;16894;49.456;10.644;2023-02-17T13:03:18;10.40;99.90
30069;DHT22;16894;49.456;10.644;2023-02-17T13:05:55;10.40;99.90
30069;DHT22;16894;49.456;10.644;2023-02-17T13:08:42;10.50;99.90
30069;DHT22;16894;49.456;10.644;2023-02-17T13:11:13;10.40;99.90
30069;DHT22;16894;49.456;10.644;2023-02-17T13:13:49;10.40;99.90
30069;DHT22;16894;49.456;10.644;2023-02-17T13:16:15;10.50;99.90
30069;DHT22;16894;49.456;10.644;2023-02-17T13:18:43;10.50;99.90
30069;DHT22;16894;49.456;10.644;2023-02-17T13:24:14;10.50;99.90
30069;DHT22;16894;49.456;10.644;2023-02-17T13:26:41;10.60;99.90
30069;DHT22;16894;49.456;10.644;2023-02-17T13:31:48;10.60;99.90
30069;DHT22;16894;49.456;10.644;2023-02-17T13:34:36;10.60;99.90
30069;DHT22;16894;49.456;10.644;2023-02-17T13:37:13;10.60;99.90
30069;DHT22;16894;49.456;10.644;2023-02-17T13:39:39;10.60;99.90
30069;DHT22;16894;49.456;10.644;2023-02-17T13:45:00;10.80;99.90
30069;DHT22;16894;49.456;10.644;2023-02-17T13:47:30;10.80;99.90
30069;DHT22;16894;49.456;10.644;2023-02-17T13:49:58;10.90;99.90
30069;DHT22;16894;49.456;10.644;2023-02-17T13:52:29;11.00;99.90
30069;DHT22;16894;49.456;10.644;2023-02-17T13:55:00;11.00;99.90
30069;DHT22;16894;49.456;10.644;2023-02-17T13:57:29;10.90;99.90
30069;DHT22;16894;49.456;10.644;2023-02-17T14:00:28;10.90;99.90
30069;DHT22;16894;49.456;10.644;2023-02-17T14:08:00;11.10;99.90
30069;DHT22;16894;49.456;10.644;2023-02-17T14:10:28;11.30;99.90
30069;DHT22;16894;49.456;10.644;2023-02-17T14:12:54;11.30;99.90
30069;DHT22;16894;49.456;10.644;2023-02-17T14:15:26;11.40;99.90
30069;DHT22;16894;49.456;10.644;2023-02-17T14:17:53;11.50;99.90
30069;DHT22;16894;49.456;10.644;2023-02-17T14:20:31;11.80;99.90
30069;DHT22;16894;49.456;10.644;2023-02-17T14:23:03;11.80;99.90
30069;DHT22;16894;49.456;10.644;2023-02-17T14:25:31;11.70;99.90
30069;DHT22;16894;49.456;10.644;2023-02-17T14:27:57;11.70;99.90
30069;DHT22;16894;49.456;10.644;2023-02-17T14:30:32;11.80;99.90
30069;DHT22;16894;49.456;10.644;2023-02-17T14:33:22;11.80;99.90
30069;DHT22;16894;49.456;10.644;2023-02-17T14:36:00;11.90;99.90
30069;DHT22;16894;49.456;10.644;2023-02-17T14:38:29;11.80;99.90
30069;DHT22;16894;49.456;10.644;2023-02-17T14:40:59;11.80;99.90
30069;DHT22;16894;49.456;10.644;2023-02-17T14:43:25;11.70;99.90
30069;DHT22;16894;49.456;10.644;2023-02-17T14:45:51;11.70;99.90
30069;DHT22;16894;49.456;10.644;2023-02-17T14:48:17;11.80;99.90
30069;DHT22;16894;49.456;10.644;2023-02-17T14:50:43;11.70;99.90
30069;DHT22;16894;49.456;10.644;2023-02-17T14:53:28;11.70;99.90
30069;DHT22;16894;49.456;10.644;2023-02-17T14:56:02;11.80;99.90
30069;DHT22;16894;49.456;10.644;2023-02-17T14:58:32;11.80;99.90
30069;DHT22;16894;49.456;10.644;2023-02-17T15:00:59;11.90;99.90
30069;DHT22;16894;49.456;10.644;2023-02-17T15:03:25;11.90;99.90
30069;DHT22;16894;49.456;10.644;2023-02-17T15:05:51;12.00;99.90
30069;DHT22;16894;49.456;10.644;2023-02-17T15:08:24;12.10;99.90
30069;DHT22;16894;49.456;10.644;2023-02-17T15:10:53;11.90;99.90
30069;DHT22;16894;49.456;10.644;2023-02-17T15:13:20;11.80;99.90
30069;DHT22;16894;49.456;10.644;2023-02-17T15:15:46;11.70;99.90
30069;DHT22;16894;49.456;10.644;2023-02-17T15:18:15;11.70;99.90
30069;DHT22;16894;49.456;10.644;2023-02-17T15:20:44;11.70;99.90
30069;DHT22;16894;49.456;10.644;2023-02-17T15:23:12;11.60;99.90
30069;DHT22;16894;49.456;10.644;2023-02-17T15:25:38;11.60;99.90
30069;DHT22;16894;49.456;10.644;2023-02-17T15:28:04;11.50;99.90
30069;DHT22;16894;49.456;10.644;2023-02-17T15:30:30;11.40;99.90
30069;DHT22;16894;49.456;10.644;2023-02-17T15:32:56;11.40;99.90
30069;DHT22;16894;49.456;10.644;2023-02-17T15:35:25;11.40;99.90
30069;DHT22;16894;49.456;10.644;2023-02-17T15:37:52;11.40;99.90
30069;DHT22;16894;49.456;10.644;2023-02-17T15:40:21;11.30;99.90
30069;DHT22;16894;49.456;10.644;2023-02-17T15:42:52;11.30;99.90
30069;DHT22;16894;49.456;10.644;2023-02-17T15:45:18;11.30;99.90
30069;DHT22;16894;49.456;10.644;2023-02-17T15:47:49;11.40;99.90
30069;DHT22;16894;49.456;10.644;2023-02-17T15:50:18;11.40;99.90
30069;DHT22;16894;49.456;10.644;2023-02-17T15:52:51;11.40;99.90
30069;DHT22;16894;49.456;10.644;2023-02-17T15:55:17;11.50;99.90
30069;DHT22;16894;49.456;10.644;2023-02-17T15:57:47;11.40;99.90
30069;DHT22;16894;49.456;10.644;2023-02-17T16:00:19;11.30;99.90
30069;DHT22;16894;49.456;10.644;2023-02-17T16:02:46;11.40;99.90
30069;DHT22;16894;49.456;10.644;2023-02-17T16:05:14;11.40;99.90
30069;DHT22;16894;49.456;10.644;2023-02-17T16:07:40;11.40;99.90
30069;DHT22;16894;49.456;10.644;2023-02-17T16:10:06;11.40;99.90
30069;DHT22;16894;49.456;10.644;2023-02-17T16:12:31;11.40;99.90
30069;DHT22;16894;49.456;10.644;2023-02-17T16:14:58;11.40;99.90
30069;DHT22;16894;49.456;10.644;2023-02-17T16:17:24;11.50;99.90
30069;DHT22;16894;49.456;10.644;2023-02-17T16:19:49;11.40;99.90
30069;DHT22;16894;49.456;10.644;2023-02-17T16:22:15;11.40;99.90
30069;DHT22;16894;49.456;10.644;2023-02-17T16:24:41;11.50;99.90
30069;DHT22;16894;49.456;10.644;2023-02-17T16:27:09;11.50;99.90
30069;DHT22;16894;49.456;10.644;2023-02-17T16:29:36;11.40;99.90
30069;DHT22;16894;49.456;10.644;2023-02-17T16:32:02;11.40;99.90
30069;DHT22;16894;49.456;10.644;2023-02-17T16:34:28;11.40;99.90
30069;DHT22;16894;49.456;10.644;2023-02-17T16:36:59;11.40;99.90
30069;DHT22;16894;49.456;10.644;2023-02-17T16:39:25;11.40;99.90
30069;DHT22;16894;49.456;10.644;2023-02-17T16:41:51;11.40;99.90
30069;DHT22;16894;49.456;10.644;2023-02-17T16:44:19;11.40;99.90
30069;DHT22;16894;49.456;10.644;2023-02-17T16:46:53;11.30;99.90
30069;DHT22;16894;49.456;10.644;2023-02-17T16:49:20;11.30;99.90
30069;DHT22;16894;49.456;10.644;2023-02-17T16:51:46;11.30;99.90
30069;DHT22;16894;49.456;10.644;2023-02-17T16:54:12;11.30;99.90
30069;DHT22;16894;49.456;10.644;2023-02-17T16:56:42;11.20;99.90
30069;DHT22;16894;49.456;10.644;2023-02-17T16:59:13;11.20;99.90
30069;DHT22;16894;49.456;10.644;2023-02-17T17:01:39;11.30;99.90